createdAt,value
2019-05-30T00:00:33.825Z,101830.03
2019-05-30T00:03:06.903Z,101827.76
2019-05-30T00:05:39.603Z,101832.34
2019-05-30T00:08:12.241Z,101825.12
2019-05-30T00:10:44.510Z,101820.67
2019-05-30T00:13:17.601Z,101820.70
2019-05-30T00:15:50.547Z,101821.19
2019-05-30T00:18:24.119Z,101820.83
2019-05-30T00:20:58.649Z,101815.92
2019-05-30T00:23:30.923Z,101813.24
2019-05-30T00:26:03.715Z,101811.45
2019-05-30T00:28:37.239Z,101811.91
2019-05-30T00:31:10.432Z,101815.77
2019-05-30T00:33:52.973Z,101811.18
2019-05-30T00:36:26.394Z,101810.25
2019-05-30T00:38:59.754Z,101803.96
2019-05-30T00:41:32.671Z,101810.11
2019-05-30T00:44:06.318Z,101810.56
2019-05-30T00:46:39.085Z,101807.08
2019-05-30T00:49:12.173Z,101821.34
2019-05-30T00:51:49.191Z,101812.83
2019-05-30T00:54:33.804Z,101807.44
2019-05-30T00:57:07.029Z,101805.66
2019-05-30T00:59:40.785Z,101803.84
2019-05-30T01:02:13.698Z,101797.11
2019-05-30T01:04:47.536Z,101793.45
2019-05-30T01:07:20.399Z,101800.14
2019-05-30T01:09:52.737Z,101800.58
2019-05-30T01:12:25.219Z,101800.58
2019-05-30T01:14:57.445Z,101807.30
2019-05-30T01:17:30.481Z,101801.56
2019-05-30T01:20:03.206Z,101803.39
2019-05-30T01:22:35.771Z,101807.39
2019-05-30T01:25:09.903Z,101801.16
2019-05-30T01:27:42.520Z,101805.16
2019-05-30T01:30:15.996Z,101805.16
2019-05-30T01:32:48.725Z,101803.78
2019-05-30T01:35:31.463Z,101803.30
2019-05-30T01:38:04.000Z,101810.88
2019-05-30T01:40:35.938Z,101807.75
2019-05-30T01:43:17.038Z,101811.63
2019-05-30T01:45:48.946Z,101812.52
2019-05-30T01:48:22.350Z,101805.30
2019-05-30T01:50:54.723Z,101795.05
2019-05-30T01:53:28.680Z,101793.67
2019-05-30T01:56:00.798Z,101800.80
2019-05-30T01:58:33.326Z,101796.84
2019-05-30T02:01:18.938Z,101801.34
2019-05-30T02:03:42.459Z,101806.28
2019-05-30T02:06:15.233Z,101796.92
2019-05-30T02:08:47.159Z,101796.88
2019-05-30T02:11:19.278Z,101794.65
2019-05-30T02:13:51.257Z,101799.47
2019-05-30T02:16:24.078Z,101794.52
2019-05-30T02:18:57.640Z,101795.84
2019-05-30T02:21:30.333Z,101791.89
2019-05-30T02:24:02.270Z,101803.02
2019-05-30T02:26:34.678Z,101804.27
2019-05-30T02:29:08.271Z,101803.86
2019-05-30T02:31:42.399Z,101804.22
2019-05-30T02:34:15.530Z,101805.11
2019-05-30T02:36:50.173Z,101804.66
2019-05-30T02:39:22.000Z,101810.89
2019-05-30T02:41:54.786Z,101801.98
2019-05-30T02:44:29.247Z,101797.53
2019-05-30T02:47:03.560Z,101803.82
2019-05-30T02:49:36.597Z,101798.92
2019-05-30T02:52:10.697Z,101804.27
2019-05-30T02:54:44.049Z,101803.37
2019-05-30T02:57:17.113Z,101806.05
2019-05-30T02:59:50.878Z,101818.07
2019-05-30T03:02:23.248Z,101817.53
2019-05-30T03:04:55.355Z,101827.73
2019-05-30T03:07:28.192Z,101822.43
2019-05-30T03:10:02.179Z,101825.16
2019-05-30T03:12:35.151Z,101827.47
2019-05-30T03:15:12.026Z,101830.59
2019-05-30T03:17:43.783Z,101827.08
2019-05-30T03:20:22.502Z,101825.34
2019-05-30T03:22:51.000Z,101822.62
2019-05-30T03:25:23.091Z,101828.38
2019-05-30T03:27:55.250Z,101820.34
2019-05-30T03:30:29.567Z,101818.57
2019-05-30T03:33:11.793Z,101819.45
2019-05-30T03:35:43.008Z,101822.57
2019-05-30T03:38:11.017Z,101826.98
2019-05-30T03:40:46.908Z,101827.92
2019-05-30T03:43:20.058Z,101835.05
2019-05-30T03:45:51.788Z,101843.06
2019-05-30T03:48:26.436Z,101830.09
2019-05-30T03:50:59.698Z,101829.52
2019-05-30T03:53:33.011Z,101828.17
2019-05-30T03:56:13.535Z,101831.68
2019-05-30T03:59:08.071Z,101832.58
2019-05-30T04:02:02.484Z,101836.08
2019-05-30T04:04:39.969Z,101839.16
2019-05-30T04:07:16.576Z,101841.83
2019-05-30T04:09:52.010Z,101831.53
2019-05-30T04:12:55.266Z,101836.39
2019-05-30T04:15:39.045Z,101838.22
2019-05-30T04:18:12.530Z,101841.27
2019-05-30T04:20:45.157Z,101845.29
2019-05-30T04:23:19.202Z,101847.13
2019-05-30T04:25:51.725Z,101855.63
2019-05-30T04:28:24.096Z,101854.34
2019-05-30T04:30:58.789Z,101857.91
2019-05-30T04:33:33.743Z,101849.80
2019-05-30T04:36:06.227Z,101846.23
2019-05-30T04:38:39.687Z,101851.56
2019-05-30T04:41:13.655Z,101850.17
2019-05-30T04:43:47.028Z,101858.20
2019-05-30T04:46:21.827Z,101864.09
2019-05-30T04:48:54.547Z,101857.91
2019-05-30T04:51:26.389Z,101858.40
2019-05-30T04:53:59.907Z,101862.36
2019-05-30T04:56:32.966Z,101862.36
2019-05-30T04:59:06.346Z,101860.47
2019-05-30T05:01:38.805Z,101868.05
2019-05-30T05:04:13.492Z,101874.88
2019-05-30T05:06:46.468Z,101878.01
2019-05-30T05:09:20.347Z,101878.98
2019-05-30T05:11:52.523Z,101883.01
2019-05-30T05:14:25.386Z,101886.16
2019-05-30T05:16:59.036Z,101883.49
2019-05-30T05:19:32.146Z,101883.05
2019-05-30T05:22:03.825Z,101878.70
2019-05-30T05:24:37.785Z,101877.37
2019-05-30T05:27:10.173Z,101877.81
2019-05-30T05:29:42.947Z,101879.10
2019-05-30T05:32:16.102Z,101880.49
2019-05-30T05:34:48.185Z,101882.72
2019-05-30T05:37:21.212Z,101886.32
2019-05-30T05:39:56.581Z,101885.03
2019-05-30T05:42:30.304Z,101885.98
2019-05-30T05:45:02.821Z,101887.22
2019-05-30T05:47:35.541Z,101884.89
2019-05-30T05:50:10.122Z,101894.73
2019-05-30T05:52:42.760Z,101889.89
2019-05-30T05:55:16.607Z,101890.83
2019-05-30T05:57:51.162Z,101891.67
2019-05-30T06:00:25.335Z,101892.52
2019-05-30T06:02:58.080Z,101894.30
2019-05-30T06:05:30.966Z,101898.80
2019-05-30T06:08:05.941Z,101899.80
2019-05-30T06:10:38.420Z,101902.56
2019-05-30T06:13:10.901Z,101907.47
2019-05-30T06:15:43.019Z,101902.66
2019-05-30T06:18:16.505Z,101905.83
2019-05-30T06:20:49.947Z,101892.55
2019-05-30T06:23:21.643Z,101898.45
2019-05-30T06:25:54.721Z,101901.58
2019-05-30T06:28:28.379Z,101903.00
2019-05-30T06:31:02.483Z,101904.42
2019-05-30T06:33:34.820Z,101915.17
2019-05-30T06:36:08.983Z,101912.63
2019-05-30T06:38:42.121Z,101924.71
2019-05-30T06:41:13.842Z,101928.72
2019-05-30T06:43:46.743Z,101928.77
2019-05-30T06:46:20.141Z,101931.53
2019-05-30T06:48:52.704Z,101929.84
2019-05-30T06:51:25.061Z,101927.12
2019-05-30T06:53:58.341Z,101926.27
2019-05-30T06:56:33.230Z,101935.20
2019-05-30T06:59:06.504Z,101932.56
2019-05-30T07:01:39.082Z,101933.05
2019-05-30T07:04:11.508Z,101929.08
2019-05-30T07:06:44.781Z,101932.81
2019-05-30T07:09:18.324Z,101920.44
2019-05-30T07:11:50.181Z,101926.25
2019-05-30T07:14:25.109Z,101923.16
2019-05-30T07:16:58.906Z,101925.92
2019-05-30T07:19:32.101Z,101926.00
2019-05-30T07:22:04.382Z,101924.03
2019-05-30T07:24:37.842Z,101930.59
2019-05-30T07:27:10.900Z,101925.37
2019-05-30T07:29:44.342Z,101936.98
2019-05-30T07:32:17.364Z,101936.44
2019-05-30T07:35:05.203Z,101926.98
2019-05-30T07:37:24.587Z,101934.27
2019-05-30T07:39:57.701Z,101929.99
2019-05-30T07:42:30.765Z,101925.11
2019-05-30T07:45:03.200Z,101926.03
2019-05-30T07:47:38.678Z,101922.81
2019-05-30T07:50:11.881Z,101929.96
2019-05-30T07:52:44.122Z,101927.25
2019-05-30T07:55:16.421Z,101929.09
2019-05-30T07:57:48.900Z,101929.09
2019-05-30T08:00:23.561Z,101924.21
2019-05-30T08:02:56.042Z,101921.98
2019-05-30T08:05:30.628Z,101925.67
2019-05-30T08:08:02.902Z,101929.83
2019-05-30T08:10:36.090Z,101929.07
2019-05-30T08:13:07.861Z,101925.05
2019-05-30T08:15:44.051Z,101926.41
2019-05-30T08:18:17.402Z,101924.92
2019-05-30T08:20:50.982Z,101934.70
2019-05-30T08:23:22.841Z,101940.00
2019-05-30T08:25:55.400Z,101933.72
2019-05-30T08:28:28.737Z,101936.31
2019-05-30T08:31:01.963Z,101941.22
2019-05-30T08:33:35.598Z,101940.39
2019-05-30T08:36:07.995Z,101939.08
2019-05-30T08:38:40.384Z,101938.16
2019-05-30T08:41:12.382Z,101934.91
2019-05-30T08:43:48.992Z,101939.41
2019-05-30T08:46:21.301Z,101938.13
2019-05-30T08:48:53.581Z,101943.94
2019-05-30T08:51:27.568Z,101942.12
2019-05-30T08:53:59.506Z,101933.50
2019-05-30T08:56:33.020Z,101943.68
2019-05-30T08:59:07.582Z,101950.31
2019-05-30T09:01:42.140Z,101946.78
2019-05-30T09:04:15.985Z,101946.33
2019-05-30T09:06:49.065Z,101950.80
2019-05-30T09:09:20.563Z,101953.06
2019-05-30T09:12:05.997Z,101956.19
2019-05-30T09:14:39.305Z,101959.34
2019-05-30T09:17:12.883Z,101958.55
2019-05-30T09:19:45.448Z,101964.52
2019-05-30T09:22:17.334Z,101966.91
2019-05-30T09:24:49.607Z,101962.16
2019-05-30T09:27:22.242Z,101962.30
2019-05-30T09:29:54.333Z,101962.46
2019-05-30T09:32:29.106Z,101963.02
2019-05-30T09:35:03.214Z,101967.56
2019-05-30T09:37:35.177Z,101971.14
2019-05-30T09:40:08.582Z,101970.26
2019-05-30T09:42:42.696Z,101972.50
2019-05-30T09:45:18.827Z,101984.13
2019-05-30T09:47:51.490Z,101981.88
2019-05-30T09:50:24.707Z,101984.11
2019-05-30T09:52:56.605Z,101977.42
2019-05-30T09:55:28.262Z,101983.69
2019-05-30T09:57:59.441Z,101972.63
2019-05-30T10:00:32.388Z,101968.26
2019-05-30T10:03:03.500Z,101972.43
2019-05-30T10:05:34.242Z,101971.16
2019-05-30T10:08:05.679Z,101973.39
2019-05-30T10:10:37.249Z,101987.72
2019-05-30T10:13:07.580Z,101993.50
2019-05-30T10:15:38.253Z,101992.95
2019-05-30T10:18:08.970Z,101995.26
2019-05-30T10:20:40.220Z,102001.09
2019-05-30T10:23:11.040Z,101995.36
2019-05-30T10:25:42.830Z,101997.15
2019-05-30T10:28:13.391Z,101996.70
2019-05-30T10:30:43.734Z,102004.80
2019-05-30T10:33:14.956Z,102009.73
2019-05-30T10:35:49.035Z,102011.97
2019-05-30T10:38:21.234Z,102003.92
2019-05-30T10:40:54.103Z,102002.56
2019-05-30T10:43:35.053Z,102000.75
2019-05-30T10:46:07.194Z,102008.81
2019-05-30T10:48:39.333Z,101998.10
2019-05-30T10:51:10.616Z,102009.36
2019-05-30T10:53:42.992Z,101998.19
2019-05-30T10:56:14.717Z,102005.41
2019-05-30T10:58:46.995Z,101997.83
2019-05-30T11:01:19.473Z,102002.30
2019-05-30T11:03:50.612Z,101995.59
2019-05-30T11:06:29.633Z,102003.58
2019-05-30T11:09:04.132Z,102012.54
2019-05-30T11:11:36.832Z,102004.91
2019-05-30T11:14:08.832Z,101999.98
2019-05-30T11:16:40.333Z,102000.89
2019-05-30T11:19:13.901Z,102004.54
2019-05-30T11:21:45.233Z,102003.23
2019-05-30T11:24:16.418Z,102007.70
2019-05-30T11:26:48.719Z,102015.33
2019-05-30T11:29:22.033Z,102016.69
2019-05-30T11:31:53.534Z,102009.51
2019-05-30T11:34:25.974Z,102016.25
2019-05-30T11:37:00.847Z,102018.49
2019-05-30T11:39:32.433Z,102017.13
2019-05-30T11:42:04.733Z,102017.13
2019-05-30T11:44:38.452Z,102018.91
2019-05-30T11:47:09.716Z,102020.25
2019-05-30T11:49:44.097Z,102017.13
2019-05-30T11:52:15.232Z,102026.96
2019-05-30T11:54:47.653Z,102027.00
2019-05-30T11:57:18.993Z,102026.53
2019-05-30T11:59:52.214Z,102025.22
2019-05-30T12:02:24.813Z,102022.52
2019-05-30T12:04:58.640Z,102024.77
2019-05-30T12:07:36.492Z,102021.14
2019-05-30T12:10:04.333Z,102014.84
2019-05-30T12:12:37.213Z,102016.19
2019-05-30T12:15:09.953Z,102014.75
2019-05-30T12:17:42.913Z,102024.19
2019-05-30T12:20:15.235Z,102013.34
2019-05-30T12:22:47.235Z,102022.33
2019-05-30T12:25:19.720Z,102013.37
2019-05-30T12:27:52.174Z,102017.44
2019-05-30T12:30:26.039Z,102019.71
2019-05-30T12:33:00.432Z,102007.51
2019-05-30T12:35:32.132Z,102015.20
2019-05-30T12:38:06.478Z,102023.37
2019-05-30T12:40:37.553Z,102025.20
2019-05-30T12:43:09.874Z,102026.09
2019-05-30T12:45:41.496Z,102016.23
2019-05-30T12:48:13.113Z,102024.74
2019-05-30T12:50:45.412Z,102020.29
2019-05-30T12:53:16.154Z,102017.13
2019-05-30T12:55:49.036Z,102019.82
2019-05-30T12:58:20.371Z,102018.02
2019-05-30T13:00:52.352Z,102019.84
2019-05-30T13:03:25.409Z,102017.14
2019-05-30T13:05:59.086Z,102011.73
2019-05-30T13:08:30.913Z,102018.91
2019-05-30T13:11:02.050Z,102011.30
2019-05-30T13:13:34.533Z,102016.20
2019-05-30T13:16:08.793Z,102009.95
2019-05-30T13:18:40.129Z,102006.36
2019-05-30T13:21:13.592Z,102002.76
2019-05-30T13:23:45.193Z,102003.20
2019-05-30T13:26:17.314Z,102007.25
2019-05-30T13:28:51.078Z,101999.16
2019-05-30T13:31:25.935Z,102000.94
2019-05-30T13:33:58.942Z,101999.16
2019-05-30T13:36:31.255Z,102002.75
2019-05-30T13:39:03.348Z,102003.63
2019-05-30T13:41:36.040Z,102005.44
2019-05-30T13:44:09.744Z,102004.50
2019-05-30T13:46:42.641Z,102000.45
2019-05-30T13:49:15.789Z,102000.00
2019-05-30T13:51:50.353Z,102000.41
2019-05-30T13:54:22.234Z,101998.61
2019-05-30T13:56:54.036Z,102001.78
2019-05-30T13:59:26.511Z,101996.84
2019-05-30T14:01:59.843Z,102005.37
2019-05-30T14:04:32.972Z,102001.27
2019-05-30T14:07:06.516Z,101997.16
2019-05-30T14:09:39.043Z,101995.36
2019-05-30T14:12:12.490Z,101997.52
2019-05-30T14:14:45.028Z,101997.02
2019-05-30T14:17:17.800Z,101997.44
2019-05-30T14:19:51.126Z,101999.57
2019-05-30T14:22:24.974Z,101996.83
2019-05-30T14:24:56.835Z,101985.59
2019-05-30T14:27:28.833Z,101990.05
2019-05-30T14:30:03.095Z,101986.03
2019-05-30T14:32:36.752Z,101990.06
2019-05-30T14:35:10.672Z,101988.63
2019-05-30T14:37:43.027Z,101986.71
2019-05-30T14:40:16.484Z,101984.95
2019-05-30T14:42:47.794Z,101983.17
2019-05-30T14:45:20.560Z,101985.93
2019-05-30T14:47:52.802Z,101985.47
2019-05-30T14:50:34.108Z,101984.64
2019-05-30T14:53:06.807Z,101988.73
2019-05-30T14:55:39.326Z,101986.56
2019-05-30T14:58:11.201Z,101986.66
2019-05-30T15:00:43.921Z,101985.76
2019-05-30T15:03:16.104Z,101985.72
2019-05-30T15:05:47.917Z,101988.36
2019-05-30T15:08:19.437Z,101995.58
2019-05-30T15:10:52.157Z,101990.22
2019-05-30T15:13:24.597Z,101984.39
2019-05-30T15:15:57.187Z,101985.25
2019-05-30T15:18:29.677Z,101985.22
2019-05-30T15:21:01.277Z,101983.88
2019-05-30T15:23:33.840Z,101986.63
2019-05-30T15:26:06.022Z,101987.10
2019-05-30T15:28:37.676Z,101989.83
2019-05-30T15:31:10.667Z,101987.13
2019-05-30T15:33:42.417Z,101991.15
2019-05-30T15:36:14.899Z,101990.25
2019-05-30T15:38:46.517Z,101994.27
2019-05-30T15:41:18.863Z,101986.59
2019-05-30T15:43:50.516Z,101989.73
2019-05-30T15:46:22.276Z,101989.73
2019-05-30T15:48:54.156Z,101990.66
2019-05-30T15:51:26.691Z,101988.41
2019-05-30T15:53:59.097Z,101995.59
2019-05-30T15:56:30.693Z,101992.44
2019-05-30T15:59:02.699Z,101986.58
2019-05-30T16:01:35.257Z,101986.17
2019-05-30T16:04:07.177Z,101983.52
2019-05-30T16:06:39.557Z,101980.40
2019-05-30T16:09:12.630Z,101978.20
2019-05-30T16:11:45.637Z,101981.36
2019-05-30T16:14:17.327Z,101972.30
2019-05-30T16:16:50.109Z,101974.55
2019-05-30T16:19:26.292Z,101974.52
2019-05-30T16:21:57.617Z,101973.18
2019-05-30T16:24:31.408Z,101975.84
2019-05-30T16:27:03.889Z,101971.84
2019-05-30T16:29:35.579Z,101971.41
2019-05-30T16:32:07.747Z,101974.14
2019-05-30T16:34:40.832Z,101970.13
2019-05-30T16:37:14.111Z,101969.25
2019-05-30T16:40:06.007Z,101970.58
2019-05-30T16:42:29.876Z,101973.27
2019-05-30T16:45:03.085Z,101970.56
2019-05-30T16:47:37.046Z,101968.77
2019-05-30T16:50:09.876Z,101970.60
2019-05-30T16:52:42.457Z,101972.41
2019-05-30T16:55:15.781Z,101970.19
2019-05-30T16:57:48.261Z,101963.43
2019-05-30T17:00:22.008Z,101965.69
2019-05-30T17:02:56.122Z,101965.70
2019-05-30T17:05:40.701Z,101973.33
2019-05-30T17:08:12.906Z,101971.56
2019-05-30T17:10:48.913Z,101976.99
2019-05-30T17:13:21.699Z,101973.39
2019-05-30T17:15:54.870Z,101968.49
2019-05-30T17:18:28.067Z,101969.84
2019-05-30T17:20:59.824Z,101964.44
2019-05-30T17:23:32.532Z,101957.66
2019-05-30T17:26:06.320Z,101965.27
2019-05-30T17:28:39.579Z,101965.70
2019-05-30T17:31:12.108Z,101962.59
2019-05-30T17:33:44.343Z,101961.72
2019-05-30T17:36:18.052Z,101953.64
2019-05-30T17:38:51.278Z,101955.48
2019-05-30T17:41:24.801Z,101950.98
2019-05-30T17:43:58.248Z,101946.96
2019-05-30T17:46:31.001Z,101949.23
2019-05-30T17:49:03.083Z,101951.02
2019-05-30T17:51:35.555Z,101944.74
2019-05-30T17:54:08.324Z,101954.19
2019-05-30T17:56:40.025Z,101949.26
2019-05-30T17:59:12.494Z,101949.30
2019-05-30T18:01:52.733Z,101944.35
2019-05-30T18:04:24.933Z,101945.72
2019-05-30T18:06:57.670Z,101943.46
2019-05-30T18:09:31.271Z,101937.65
2019-05-30T18:12:06.940Z,101948.84
2019-05-30T18:14:39.400Z,101950.20
2019-05-30T18:17:11.425Z,101942.13
2019-05-30T18:19:53.811Z,101943.94
2019-05-30T18:22:27.592Z,101951.13
2019-05-30T18:25:00.947Z,101946.65
2019-05-30T18:27:33.022Z,101945.73
2019-05-30T18:30:07.027Z,101942.15
2019-05-30T18:32:49.805Z,101943.50
2019-05-30T18:35:22.216Z,101944.86
2019-05-30T18:37:54.814Z,101946.67
2019-05-30T18:40:37.025Z,101950.72
2019-05-30T18:43:11.197Z,101952.06
2019-05-30T18:45:43.967Z,101950.28
2019-05-30T18:48:16.068Z,101948.02
2019-05-30T18:50:49.127Z,101948.04
2019-05-30T18:53:21.647Z,101950.72
2019-05-30T18:55:53.345Z,101954.75
2019-05-30T18:58:26.789Z,101956.10
2019-05-30T19:00:58.541Z,101952.09
2019-05-30T19:03:51.406Z,101953.85
2019-05-30T19:06:25.547Z,101951.61
2019-05-30T19:08:57.930Z,101955.67
2019-05-30T19:11:34.934Z,101954.75
2019-05-30T19:14:07.860Z,101954.77
2019-05-30T19:16:40.665Z,101955.64
2019-05-30T19:19:13.159Z,101955.66
2019-05-30T19:21:45.914Z,101959.26
2019-05-30T19:24:26.031Z,101960.10
2019-05-30T19:26:58.865Z,101964.16
2019-05-30T19:29:39.065Z,101963.67
2019-05-30T19:32:11.822Z,101963.69
2019-05-30T19:34:44.877Z,101958.75
2019-05-30T19:37:27.025Z,101957.84
2019-05-30T19:39:58.778Z,101959.66
2019-05-30T19:42:38.320Z,101961.00
2019-05-30T19:45:11.736Z,101961.87
2019-05-30T19:47:44.063Z,101957.86
2019-05-30T19:50:17.177Z,101968.16
2019-05-30T19:52:50.460Z,101965.47
2019-05-30T19:55:24.567Z,101968.16
2019-05-30T19:57:57.453Z,101965.45
2019-05-30T20:00:57.251Z,101973.52
2019-05-30T20:03:35.654Z,101970.83
2019-05-30T20:06:05.465Z,101970.39
2019-05-30T20:08:51.326Z,101979.36
2019-05-30T20:11:11.987Z,101980.24
2019-05-30T20:13:44.127Z,101984.72
2019-05-30T20:16:16.418Z,101983.83
2019-05-30T20:18:48.010Z,101994.14
2019-05-30T20:21:20.919Z,101994.12
2019-05-30T20:24:02.079Z,101997.28
2019-05-30T20:26:36.650Z,102007.13
2019-05-30T20:29:09.073Z,102007.58
2019-05-30T20:31:43.482Z,102013.84
2019-05-30T20:34:17.380Z,102010.72
2019-05-30T20:36:49.811Z,102013.86
2019-05-30T20:39:21.610Z,102012.95
2019-05-30T20:41:54.131Z,102016.51
2019-05-30T20:44:29.831Z,102020.99
2019-05-30T20:47:03.761Z,102017.42
2019-05-30T20:49:37.142Z,102014.27
2019-05-30T20:52:10.718Z,102018.77
2019-05-30T20:54:43.494Z,102018.75
2019-05-30T20:57:16.057Z,102025.01
2019-05-30T20:59:48.842Z,102017.83
2019-05-30T21:02:22.454Z,102026.36
2019-05-30T21:04:54.981Z,102028.13
2019-05-30T21:07:29.707Z,102028.99
2019-05-30T21:10:02.477Z,102035.72
2019-05-30T21:12:41.044Z,102028.50
2019-05-30T21:15:10.436Z,102031.17
2019-05-30T21:17:46.109Z,102042.81
2019-05-30T21:20:28.578Z,102041.44
2019-05-30T21:23:10.825Z,102049.89
2019-05-30T21:25:43.351Z,102052.95
2019-05-30T21:28:15.187Z,102058.75
2019-05-30T21:30:45.930Z,102056.91
2019-05-30T21:33:17.771Z,102059.58
2019-05-30T21:35:52.266Z,102056.87
2019-05-30T21:38:24.289Z,102059.99
2019-05-30T21:40:57.535Z,102056.39
2019-05-30T21:43:29.377Z,102065.34
2019-05-30T21:46:08.069Z,102065.27
2019-05-30T21:48:42.806Z,102067.46
2019-05-30T21:51:15.149Z,102068.31
2019-05-30T21:53:48.115Z,102067.39
2019-05-30T21:56:23.940Z,102065.14
2019-05-30T21:58:56.316Z,102059.72
2019-05-30T22:01:34.126Z,102063.30
2019-05-30T22:04:07.688Z,102067.30
2019-05-30T22:06:40.946Z,102061.88
2019-05-30T22:09:14.339Z,102062.75
2019-05-30T22:11:47.758Z,102060.45
2019-05-30T22:14:20.199Z,102059.53
2019-05-30T22:16:53.026Z,102055.47
2019-05-30T22:19:26.654Z,102055.90
2019-05-30T22:21:58.688Z,102062.09
2019-05-30T22:24:30.947Z,102061.14
2019-05-30T22:27:02.887Z,102060.67
2019-05-30T22:29:35.498Z,102058.37
2019-05-30T22:32:08.129Z,102057.45
2019-05-30T22:34:42.655Z,102055.62
2019-05-30T22:37:15.381Z,102053.30
2019-05-30T22:39:50.932Z,102052.81
2019-05-30T22:42:23.387Z,102053.23
2019-05-30T22:44:56.514Z,102049.17
2019-05-30T22:47:28.483Z,102046.95
2019-05-30T22:50:00.747Z,102041.96
2019-05-30T22:52:34.127Z,102044.64
2019-05-30T22:55:06.599Z,102039.66
2019-05-30T22:57:40.028Z,102035.16
2019-05-30T23:00:12.832Z,102037.80
2019-05-30T23:02:45.944Z,102041.31
2019-05-30T23:05:19.113Z,102042.17
2019-05-30T23:07:51.785Z,102039.45
2019-05-30T23:10:24.440Z,102039.90
2019-05-30T23:12:56.703Z,102040.27
2019-05-30T23:15:28.488Z,102038.45
2019-05-30T23:18:07.742Z,102037.03
2019-05-30T23:20:40.109Z,102037.00
2019-05-30T23:23:13.003Z,102034.69
2019-05-30T23:25:45.357Z,102031.08
2019-05-30T23:28:18.767Z,102030.59
2019-05-30T23:30:51.975Z,102035.88
2019-05-30T23:33:24.897Z,102035.39
2019-05-30T23:35:56.789Z,102025.53
2019-05-30T23:38:29.512Z,102026.83
2019-05-30T23:41:02.537Z,102021.88
2019-05-30T23:43:35.157Z,102021.84
2019-05-30T23:46:07.843Z,102017.33
2019-05-30T23:48:40.301Z,102015.51
2019-05-30T23:51:12.761Z,102013.23
2019-05-30T23:53:45.128Z,102013.19
2019-05-30T23:56:17.289Z,102007.80
2019-05-30T23:58:50.561Z,102012.22
